Time;durP1;ratioP1;P1;durP2;ratioP2;P2;SDS_P1;SDS_P2;PMS_P1;PMS_P2;Temp;Humidity;BMP_temperature;BMP_pressure;BME280_temperature;BME280_humidity;BME280_pressure;Samples;Min_cycle;Max_cycle;Signal;HPM_P1;HPM_P2
2020/12/03 00:02:16;;;;;;;18.33;12.95;;;;;;;;;;6211448;28;20451;-68
2020/12/03 00:05:18;;;;;;;18.80;12.57;;;;;;;;;;6237829;28;20053;-69
2020/12/03 00:08:20;;;;;;;18.73;12.77;;;;;;;;;;6218881;28;20509;-68
2020/12/03 00:11:23;;;;;;;22.63;13.07;;;;;;;;;;6222631;28;20554;-68
2020/12/03 00:14:25;;;;;;;20.30;13.83;;;;;;;;;;6225912;28;20088;-68
2020/12/03 00:17:26;;;;;;;18.55;13.38;;;;;;;;;;6233301;28;20187;-68
2020/12/03 00:20:28;;;;;;;19.80;13.32;;;;;;;;;;6230386;28;20124;-69
2020/12/03 00:23:29;;;;;;;19.70;12.75;;;;;;;;;;6242448;28;20045;-69
2020/12/03 00:26:31;;;;;;;20.40;12.55;;;;;;;;;;6214092;28;20510;-68
2020/12/03 00:29:32;;;;;;;17.85;12.02;;;;;;;;;;6227946;28;20052;-69
2020/12/03 00:32:33;;;;;;;18.85;13.35;;;;;;;;;;6241821;28;20046;-69
2020/12/03 00:35:35;;;;;;;149.82;73.82;;;;;;;;;;6233320;28;20512;-68
2020/12/03 00:38:36;;;;;;;239.40;97.82;;;;;;;;;;6239406;28;20057;-69
2020/12/03 00:41:37;;;;;;;35.25;20.85;;;;;;;;;;6238844;28;20132;-69
2020/12/03 00:44:38;;;;;;;42.35;24.05;;;;;;;;;;6240014;28;20045;-66
2020/12/03 00:47:40;;;;;;;19.23;13.13;;;;;;;;;;6240828;28;21427;-68
2020/12/03 00:50:41;;;;;;;17.42;12.50;;;;;;;;;;6247307;28;20057;-69
2020/12/03 00:53:42;;;;;;;20.33;12.93;;;;;;;;;;6235275;28;20044;-69
2020/12/03 00:56:46;;;;;;;21.20;14.55;;;;;;;;;;6244977;28;20133;-68
2020/12/03 00:59:47;;;;;;;20.23;13.47;;;;;;;;;;6242388;28;20053;-69
2020/12/03 01:02:49;;;;;;;22.30;13.70;;;;;;;;;;6234047;28;20617;-68
2020/12/03 01:05:51;;;;;;;23.77;15.38;;;;;;;;;;6237802;28;20577;-69
2020/12/03 01:08:52;;;;;;;28.13;17.85;;;;;;;;;;6228269;28;20045;-67
2020/12/03 01:11:53;;;;;;;37.78;23.85;;;;;;;;;;6230052;28;20099;-67
2020/12/03 01:14:54;;;;;;;33.65;19.98;;;;;;;;;;6235764;28;20103;-68
2020/12/03 01:17:55;;;;;;;38.63;22.80;;;;;;;;;;6236721;28;20041;-68
2020/12/03 01:20:57;;;;;;;39.70;22.98;;;;;;;;;;6236863;28;20497;-67
2020/12/03 01:23:58;;;;;;;39.25;22.25;;;;;;;;;;6238198;28;20053;-68
2020/12/03 01:26:59;;;;;;;41.88;23.23;;;;;;;;;;6225186;28;20194;-68
2020/12/03 01:30:00;;;;;;;36.35;21.65;;;;;;;;;;6238010;28;20049;-67
2020/12/03 01:33:01;;;;;;;39.50;22.85;;;;;;;;;;6224258;28;20669;-68
2020/12/03 01:36:03;;;;;;;39.97;21.50;;;;;;;;;;6236483;28;20056;-68
2020/12/03 01:39:05;;;;;;;38.22;21.55;;;;;;;;;;6227654;28;20054;-68
2020/12/03 01:42:06;;;;;;;45.75;25.13;;;;;;;;;;6214699;28;20038;-68
2020/12/03 01:45:44;;;;;;;47.72;23.60;;;;;;;;;;6220584;28;20095;-68
2020/12/03 01:48:47;;;;;;;47.40;23.00;;;;;;;;;;6226701;28;20090;-68
2020/12/03 01:51:53;;;;;;;48.85;23.90;;;;;;;;;;6236484;28;20049;-67
2020/12/03 01:54:54;;;;;;;53.95;23.85;;;;;;;;;;6233626;28;20067;-68
2020/12/03 01:57:57;;;;;;;47.83;23.95;;;;;;;;;;6233346;28;20064;-67
2020/12/03 02:00:59;;;;;;;47.25;22.85;;;;;;;;;;6237479;28;20139;-67
2020/12/03 02:04:00;;;;;;;42.20;21.65;;;;;;;;;;6233792;28;20373;-66
2020/12/03 02:07:05;;;;;;;48.65;22.83;;;;;;;;;;6237277;28;20055;-66
2020/12/03 02:10:06;;;;;;;52.17;24.23;;;;;;;;;;6223354;28;20065;-68
2020/12/03 02:13:07;;;;;;;55.25;24.15;;;;;;;;;;6229707;28;20064;-68
2020/12/03 02:16:08;;;;;;;51.80;24.80;;;;;;;;;;6215070;28;20045;-67
2020/12/03 02:19:19;;;;;;;51.75;24.45;;;;;;;;;;6217883;28;20066;-68
2020/12/03 02:22:21;;;;;;;53.17;23.13;;;;;;;;;;6236783;28;20522;-68
2020/12/03 02:25:22;;;;;;;51.65;22.70;;;;;;;;;;6226916;28;20836;-68
2020/12/03 02:28:24;;;;;;;51.80;24.63;;;;;;;;;;6218563;28;20188;-68
2020/12/03 02:31:25;;;;;;;55.08;24.40;;;;;;;;;;6224526;28;20591;-68
2020/12/03 02:34:26;;;;;;;50.30;25.10;;;;;;;;;;6244225;28;20140;-69
2020/12/03 02:37:28;;;;;;;50.53;24.67;;;;;;;;;;6254080;28;20050;-68
2020/12/03 02:40:29;;;;;;;44.47;22.60;;;;;;;;;;6237296;28;20144;-69
2020/12/03 02:43:30;;;;;;;42.80;20.48;;;;;;;;;;6225769;28;20038;-68
2020/12/03 02:46:31;;;;;;;40.45;21.20;;;;;;;;;;6239854;28;20112;-67
2020/12/03 02:49:32;;;;;;;41.22;21.50;;;;;;;;;;6223388;28;20421;-67
2020/12/03 02:52:34;;;;;;;39.40;20.10;;;;;;;;;;6216722;28;20045;-68
2020/12/03 02:55:36;;;;;;;41.95;20.40;;;;;;;;;;6223813;28;20229;-68
2020/12/03 02:58:37;;;;;;;40.10;19.58;;;;;;;;;;6219325;28;20080;-68
2020/12/03 03:01:38;;;;;;;38.75;20.40;;;;;;;;;;6223335;28;20558;-69
2020/12/03 03:04:39;;;;;;;35.50;19.17;;;;;;;;;;6227095;28;20049;-68
2020/12/03 03:07:41;;;;;;;41.40;20.65;;;;;;;;;;6217225;28;20176;-68
2020/12/03 03:10:42;;;;;;;37.58;19.45;;;;;;;;;;6215586;28;20042;-68
2020/12/03 03:13:43;;;;;;;39.45;20.58;;;;;;;;;;6215957;28;20057;-68
2020/12/03 03:16:48;;;;;;;37.92;19.02;;;;;;;;;;6232217;28;20096;-69
2020/12/03 03:19:49;;;;;;;43.67;20.75;;;;;;;;;;6226944;28;20726;-68
2020/12/03 03:22:51;;;;;;;34.65;18.13;;;;;;;;;;6239744;28;20064;-68
2020/12/03 03:25:52;;;;;;;37.33;19.90;;;;;;;;;;6247028;28;20195;-68
2020/12/03 03:28:53;;;;;;;40.13;20.75;;;;;;;;;;6241889;28;20172;-68
2020/12/03 03:31:55;;;;;;;40.58;20.42;;;;;;;;;;6234712;28;20045;-67
2020/12/03 03:34:56;;;;;;;37.15;19.60;;;;;;;;;;6230904;28;20184;-67
2020/12/03 03:37:58;;;;;;;34.42;19.20;;;;;;;;;;6217796;28;20111;-68
2020/12/03 03:40:59;;;;;;;32.65;17.70;;;;;;;;;;6217089;28;20716;-68
2020/12/03 03:44:00;;;;;;;30.30;17.75;;;;;;;;;;6232751;28;20184;-67
2020/12/03 03:47:01;;;;;;;32.67;17.52;;;;;;;;;;6237747;28;20077;-67
2020/12/03 03:50:03;;;;;;;34.45;16.83;;;;;;;;;;6221818;28;20057;-67
2020/12/03 03:53:05;;;;;;;31.80;16.38;;;;;;;;;;6222402;28;20405;-67
2020/12/03 03:56:06;;;;;;;33.03;16.70;;;;;;;;;;6233661;28;20200;-67
2020/12/03 03:59:07;;;;;;;33.70;16.42;;;;;;;;;;6227300;28;20380;-67
2020/12/03 04:02:08;;;;;;;29.73;15.35;;;;;;;;;;6236847;28;20175;-67
2020/12/03 04:05:09;;;;;;;31.52;16.52;;;;;;;;;;6238474;28;20503;-67
2020/12/03 04:08:13;;;;;;;34.42;16.35;;;;;;;;;;6234686;28;20139;-68
2020/12/03 04:11:15;;;;;;;35.17;17.13;;;;;;;;;;6217151;28;20215;-67
2020/12/03 04:14:16;;;;;;;30.80;16.10;;;;;;;;;;6225323;28;20053;-67
2020/12/03 04:17:18;;;;;;;31.85;16.55;;;;;;;;;;6244366;28;20179;-67
2020/12/03 04:20:19;;;;;;;33.67;17.13;;;;;;;;;;6241679;28;20059;-68
2020/12/03 04:23:21;;;;;;;36.90;17.60;;;;;;;;;;6245005;28;20053;-67
2020/12/03 04:26:22;;;;;;;27.90;15.45;;;;;;;;;;6209314;28;20046;-67
2020/12/03 04:29:23;;;;;;;27.17;15.02;;;;;;;;;;6218291;28;20477;-67
2020/12/03 04:32:24;;;;;;;30.17;16.05;;;;;;;;;;6239714;28;20607;-67
2020/12/03 04:35:25;;;;;;;32.38;16.02;;;;;;;;;;6241896;28;20103;-68
2020/12/03 04:38:27;;;;;;;31.45;15.98;;;;;;;;;;6234644;28;20054;-69
2020/12/03 04:41:28;;;;;;;31.35;15.73;;;;;;;;;;6217613;28;20042;-68
2020/12/03 04:44:34;;;;;;;33.03;16.33;;;;;;;;;;6217190;28;20136;-67
2020/12/03 04:47:51;;;;;;;32.88;16.48;;;;;;;;;;6233852;28;20072;-67
2020/12/03 04:51:00;;;;;;;30.58;15.57;;;;;;;;;;6216347;28;20121;-69
2020/12/03 04:54:15;;;;;;;31.33;15.82;;;;;;;;;;6223480;28;20049;-68
2020/12/03 04:57:22;;;;;;;31.40;16.13;;;;;;;;;;6241885;28;20049;-67
2020/12/03 05:00:32;;;;;;;29.90;15.40;;;;;;;;;;6247097;28;20048;-68
2020/12/03 05:03:56;;;;;;;31.92;17.13;;;;;;;;;;6239764;28;20401;-68
2020/12/03 05:07:00;;;;;;;28.37;15.40;;;;;;;;;;6210391;28;20318;-69
2020/12/03 05:10:12;;;;;;;35.97;16.77;;;;;;;;;;6237266;28;20103;-69
2020/12/03 05:13:18;;;;;;;31.33;16.73;;;;;;;;;;6236442;28;20187;-69
2020/12/03 05:16:27;;;;;;;32.08;16.15;;;;;;;;;;6235923;28;20053;-68
2020/12/03 05:19:37;;;;;;;34.13;16.25;;;;;;;;;;6237084;28;20045;-69
2020/12/03 05:22:39;;;;;;;34.58;16.48;;;;;;;;;;6226028;28;20049;-68
2020/12/03 05:25:42;;;;;;;32.72;16.45;;;;;;;;;;6217530;28;20049;-68
2020/12/03 05:28:52;;;;;;;30.58;17.42;;;;;;;;;;6220721;28;20041;-70
2020/12/03 05:31:54;;;;;;;35.47;16.73;;;;;;;;;;6238579;28;20142;-70
2020/12/03 05:34:55;;;;;;;36.03;16.65;;;;;;;;;;6211915;28;20144;-69
2020/12/03 05:37:57;;;;;;;31.88;16.50;;;;;;;;;;6233946;28;20187;-69
2020/12/03 05:41:01;;;;;;;34.45;16.80;;;;;;;;;;6248776;28;20179;-70
2020/12/03 05:44:06;;;;;;;32.78;17.73;;;;;;;;;;6241443;28;20161;-69
2020/12/03 05:47:20;;;;;;;33.25;17.13;;;;;;;;;;6223707;28;20069;-69
2020/12/03 05:50:34;;;;;;;36.60;16.42;;;;;;;;;;6228392;28;20050;-69
2020/12/03 05:53:35;;;;;;;34.08;18.02;;;;;;;;;;6209005;28;20116;-70
2020/12/03 05:56:37;;;;;;;34.65;17.73;;;;;;;;;;6230425;28;20075;-69
2020/12/03 05:59:38;;;;;;;35.25;18.60;;;;;;;;;;6233253;28;20412;-70
2020/12/03 06:02:46;;;;;;;36.90;17.83;;;;;;;;;;6243634;28;20091;-69
2020/12/03 06:06:01;;;;;;;34.25;17.70;;;;;;;;;;6242575;28;20098;-70
2020/12/03 06:09:10;;;;;;;35.70;18.05;;;;;;;;;;6240384;28;20108;-69
2020/12/03 06:12:21;;;;;;;34.17;18.10;;;;;;;;;;6230904;28;20714;-70
2020/12/03 06:15:33;;;;;;;35.15;18.15;;;;;;;;;;6214794;28;20504;-70
2020/12/03 06:18:51;;;;;;;36.42;18.85;;;;;;;;;;6209030;28;20649;-70
2020/12/03 06:22:00;;;;;;;35.15;18.60;;;;;;;;;;6210306;28;20164;-70
2020/12/03 06:25:22;;;;;;;37.08;17.63;;;;;;;;;;6209740;28;20136;-70
2020/12/03 06:29:03;;;;;;;43.22;19.10;;;;;;;;;;6231803;28;20048;-69
2020/12/03 06:32:19;;;;;;;34.00;18.17;;;;;;;;;;6217106;28;20084;-69
2020/12/03 06:35:26;;;;;;;34.38;18.83;;;;;;;;;;6232724;28;20046;-70
2020/12/03 06:38:34;;;;;;;36.15;17.98;;;;;;;;;;6237823;28;20084;-68
2020/12/03 06:41:43;;;;;;;36.92;18.83;;;;;;;;;;6236558;28;20045;-70
2020/12/03 06:44:49;;;;;;;31.88;19.00;;;;;;;;;;6236170;28;20171;-70
2020/12/03 06:48:09;;;;;;;31.25;17.80;;;;;;;;;;6233987;28;20187;-70
2020/12/03 06:51:46;;;;;;;33.50;16.77;;;;;;;;;;6223896;28;20109;-70
2020/12/03 06:54:59;;;;;;;32.03;16.75;;;;;;;;;;6208607;28;20089;-69
2020/12/03 06:58:29;;;;;;;29.35;17.30;;;;;;;;;;6209818;28;20172;-69
2020/12/03 07:01:55;;;;;;;33.15;17.48;;;;;;;;;;6221077;28;20103;-69
2020/12/03 07:05:30;;;;;;;32.30;17.17;;;;;;;;;;6226739;28;20384;-70
2020/12/03 07:08:48;;;;;;;35.95;17.65;;;;;;;;;;6226958;28;20038;-69
2020/12/03 07:12:03;;;;;;;35.42;18.90;;;;;;;;;;6208619;28;20431;-69
2020/12/03 07:15:29;;;;;;;37.15;18.50;;;;;;;;;;6210029;28;20464;-70
2020/12/03 07:18:50;;;;;;;35.97;18.55;;;;;;;;;;6214595;28;20042;-70
2020/12/03 07:22:09;;;;;;;44.33;18.52;;;;;;;;;;6215048;28;20137;-70
2020/12/03 07:25:11;;;;;;;40.70;18.45;;;;;;;;;;6226425;28;20124;-69
2020/12/03 07:28:18;;;;;;;41.25;18.42;;;;;;;;;;6216247;28;20490;-69
2020/12/03 07:31:23;;;;;;;39.90;18.10;;;;;;;;;;6237419;28;20493;-69
2020/12/03 07:34:30;;;;;;;42.42;19.42;;;;;;;;;;6236595;28;20592;-69
2020/12/03 07:37:40;;;;;;;37.65;18.73;;;;;;;;;;6236180;28;20210;-69
2020/12/03 07:40:41;;;;;;;42.35;19.48;;;;;;;;;;6232901;28;20052;-70
2020/12/03 07:43:43;;;;;;;43.95;19.90;;;;;;;;;;6238518;28;20093;-68
2020/12/03 07:46:45;;;;;;;42.47;20.88;;;;;;;;;;6230768;28;20176;-69
2020/12/03 07:49:48;;;;;;;53.08;20.38;;;;;;;;;;6235216;28;20177;-69
2020/12/03 07:53:18;;;;;;;38.47;19.00;;;;;;;;;;6232911;28;20456;-70
2020/12/03 07:56:38;;;;;;;45.78;20.33;;;;;;;;;;6233532;28;20735;-69
2020/12/03 07:59:39;;;;;;;47.90;21.30;;;;;;;;;;6230302;28;20053;-69
2020/12/03 08:02:58;;;;;;;44.63;19.92;;;;;;;;;;6205631;28;20052;-69
2020/12/03 08:06:26;;;;;;;56.45;20.15;;;;;;;;;;6233600;28;20704;-69
2020/12/03 08:09:37;;;;;;;48.15;18.67;;;;;;;;;;6232727;28;20132;-69
2020/12/03 08:13:14;;;;;;;50.65;19.73;;;;;;;;;;6233886;28;20125;-69
2020/12/03 08:16:33;;;;;;;34.80;17.30;;;;;;;;;;6233250;28;20604;-69
2020/12/03 08:19:36;;;;;;;35.10;17.98;;;;;;;;;;6218152;28;20132;-69
2020/12/03 08:22:41;;;;;;;30.70;16.95;;;;;;;;;;6212621;28;20049;-68
2020/12/03 08:25:45;;;;;;;35.22;18.42;;;;;;;;;;6212223;28;20077;-69
2020/12/03 08:28:46;;;;;;;29.25;15.82;;;;;;;;;;6234845;28;20041;-69
2020/12/03 08:31:48;;;;;;;28.85;15.90;;;;;;;;;;6235953;28;20813;-67
2020/12/03 08:34:49;;;;;;;26.92;15.93;;;;;;;;;;6237198;28;20077;-67
2020/12/03 08:37:52;;;;;;;28.02;16.30;;;;;;;;;;6233783;28;20060;-67
2020/12/03 08:40:55;;;;;;;24.25;15.68;;;;;;;;;;6230269;28;21641;-68
2020/12/03 08:44:02;;;;;;;27.83;16.42;;;;;;;;;;6232856;28;20053;-67
2020/12/03 08:47:11;;;;;;;26.90;16.27;;;;;;;;;;6232581;28;20052;-68
2020/12/03 08:50:14;;;;;;;28.92;16.40;;;;;;;;;;6236296;28;20053;-68
2020/12/03 08:53:15;;;;;;;32.85;17.85;;;;;;;;;;6214495;28;20464;-65
2020/12/03 08:56:32;;;;;;;25.05;15.63;;;;;;;;;;6230400;28;20914;-69
2020/12/03 08:59:35;;;;;;;31.48;17.02;;;;;;;;;;6238477;28;20124;-69
2020/12/03 09:02:36;;;;;;;29.27;16.25;;;;;;;;;;6232106;28;20042;-69
2020/12/03 09:05:39;;;;;;;29.17;16.10;;;;;;;;;;6214657;28;20184;-69
2020/12/03 09:08:40;;;;;;;28.05;16.60;;;;;;;;;;6241145;28;20139;-68
2020/12/03 09:11:41;;;;;;;29.42;15.45;;;;;;;;;;6237864;28;20458;-67
2020/12/03 09:14:43;;;;;;;27.95;16.42;;;;;;;;;;6236489;28;20124;-68
2020/12/03 09:17:51;;;;;;;30.05;17.48;;;;;;;;;;6234571;28;20370;-68
2020/12/03 09:20:54;;;;;;;31.60;16.23;;;;;;;;;;6230829;28;20164;-68
2020/12/03 09:23:56;;;;;;;27.75;16.55;;;;;;;;;;6216556;28;20294;-68
2020/12/03 09:27:02;;;;;;;29.52;16.08;;;;;;;;;;6232340;28;20050;-68
2020/12/03 09:30:03;;;;;;;30.38;17.48;;;;;;;;;;6220524;28;20064;-68
2020/12/03 09:33:08;;;;;;;28.23;15.63;;;;;;;;;;6228976;28;20056;-67
2020/12/03 09:36:11;;;;;;;28.20;16.80;;;;;;;;;;6221255;28;20127;-67
2020/12/03 09:39:12;;;;;;;27.75;16.15;;;;;;;;;;6219782;28;20735;-67
2020/12/03 09:42:14;;;;;;;30.40;16.45;;;;;;;;;;6232989;28;20053;-69
2020/12/03 09:45:19;;;;;;;28.60;16.65;;;;;;;;;;6241270;28;20132;-68
2020/12/03 09:48:20;;;;;;;26.33;16.50;;;;;;;;;;6217234;28;20413;-68
2020/12/03 09:51:23;;;;;;;30.77;16.80;;;;;;;;;;6215559;28;20576;-67
2020/12/03 09:54:24;;;;;;;31.45;16.92;;;;;;;;;;6213857;28;20046;-67
2020/12/03 09:57:25;;;;;;;28.58;17.58;;;;;;;;;;6215369;28;20091;-66
2020/12/03 10:00:29;;;;;;;33.05;18.02;;;;;;;;;;6216603;28;20095;-67
2020/12/03 10:03:44;;;;;;;32.70;18.37;;;;;;;;;;6210737;28;20058;-65
2020/12/03 10:06:54;;;;;;;33.80;18.48;;;;;;;;;;6236475;28;20049;-67
2020/12/03 10:10:11;;;;;;;29.98;17.45;;;;;;;;;;6241435;28;20432;-68
2020/12/03 10:13:31;;;;;;;36.97;19.75;;;;;;;;;;6237533;28;20041;-67
2020/12/03 10:16:35;;;;;;;36.00;19.92;;;;;;;;;;6234330;28;20436;-68
2020/12/03 10:19:38;;;;;;;38.15;20.73;;;;;;;;;;6236321;28;20061;-67
2020/12/03 10:22:46;;;;;;;35.95;20.25;;;;;;;;;;6226510;28;20156;-67
2020/12/03 10:25:54;;;;;;;37.05;22.13;;;;;;;;;;6225007;28;20041;-67
2020/12/03 10:29:07;;;;;;;38.90;22.40;;;;;;;;;;6222216;28;20134;-68
2020/12/03 10:32:11;;;;;;;39.22;22.42;;;;;;;;;;6230016;28;20127;-68
2020/12/03 10:35:14;;;;;;;41.38;23.17;;;;;;;;;;6237438;28;20404;-66
2020/12/03 10:38:19;;;;;;;43.97;25.05;;;;;;;;;;6237599;28;20452;-67
2020/12/03 10:41:20;;;;;;;45.40;24.00;;;;;;;;;;6234949;28;20081;-67
2020/12/03 10:44:25;;;;;;;42.53;22.88;;;;;;;;;;6231414;28;20580;-67
2020/12/03 10:47:27;;;;;;;44.70;23.27;;;;;;;;;;6233110;28;20064;-68
2020/12/03 10:50:58;;;;;;;45.53;25.17;;;;;;;;;;6236221;28;20500;-68
2020/12/03 10:54:00;;;;;;;43.97;24.33;;;;;;;;;;6230884;28;20154;-68
2020/12/03 10:57:04;;;;;;;45.40;24.35;;;;;;;;;;6235831;28;20184;-68
2020/12/03 11:00:08;;;;;;;37.15;22.30;;;;;;;;;;6217113;28;20095;-68
2020/12/03 11:03:13;;;;;;;40.33;23.70;;;;;;;;;;6225620;28;20571;-69
2020/12/03 11:06:15;;;;;;;40.47;22.15;;;;;;;;;;6237114;28;20094;-68
2020/12/03 11:09:20;;;;;;;45.05;24.10;;;;;;;;;;6235324;28;20065;-68
2020/12/03 11:12:20;;;;;;;;;;;;;;;;;;6228919;28;20060;-68
2020/12/03 11:15:24;;;;;;;45.35;24.10;;;;;;;;;;6240610;28;19928;-67
2020/12/03 11:18:26;;;;;;;39.45;22.83;;;;;;;;;;6236078;28;20102;-68
2020/12/03 11:21:31;;;;;;;42.33;22.58;;;;;;;;;;6235190;28;20136;-68
2020/12/03 11:24:34;;;;;;;40.45;22.02;;;;;;;;;;6235038;28;20097;-68
2020/12/03 11:27:37;;;;;;;39.47;22.48;;;;;;;;;;6230044;28;20045;-68
2020/12/03 11:30:38;;;;;;;44.78;22.77;;;;;;;;;;6210177;28;20054;-67
2020/12/03 11:33:41;;;;;;;37.42;21.80;;;;;;;;;;6211662;28;20042;-68
2020/12/03 11:36:44;;;;;;;39.83;21.53;;;;;;;;;;6214708;28;20135;-68
2020/12/03 11:39:48;;;;;;;39.85;21.88;;;;;;;;;;6209456;28;20493;-68
2020/12/03 11:42:56;;;;;;;38.63;21.10;;;;;;;;;;6209974;28;20053;-68
2020/12/03 11:49:27;;;;;;;37.15;21.17;;;;;;;;;;6209026;28;20046;-68
2020/12/03 11:52:33;;;;;;;36.35;21.33;;;;;;;;;;6213733;28;20080;-67
2020/12/03 11:55:39;;;;;;;42.95;22.98;;;;;;;;;;6216577;28;20149;-68
2020/12/03 11:58:40;;;;;;;40.10;23.02;;;;;;;;;;6213219;28;20058;-69
2020/12/03 12:01:41;;;;;;;38.53;21.95;;;;;;;;;;6215916;28;20140;-67
2020/12/03 12:04:49;;;;;;;37.92;22.02;;;;;;;;;;6209067;28;20180;-69
2020/12/03 12:08:00;;;;;;;40.15;22.95;;;;;;;;;;6228386;28;20565;-69
2020/12/03 12:11:09;;;;;;;36.13;21.77;;;;;;;;;;6229859;28;20053;-68
2020/12/03 12:14:10;;;;;;;48.92;24.02;;;;;;;;;;6219844;28;20049;-69
2020/12/03 12:17:11;;;;;;;44.75;23.63;;;;;;;;;;6228258;28;20049;-68
2020/12/03 12:20:14;;;;;;;34.28;21.10;;;;;;;;;;6234281;28;20045;-69
2020/12/03 12:23:15;;;;;;;39.90;23.25;;;;;;;;;;6243293;28;20412;-68
2020/12/03 12:26:17;;;;;;;35.42;21.70;;;;;;;;;;6239857;28;20120;-68
2020/12/03 12:29:18;;;;;;;39.53;22.52;;;;;;;;;;6226210;28;20103;-68
2020/12/03 12:32:19;;;;;;;36.30;22.20;;;;;;;;;;6237741;28;20139;-68
2020/12/03 12:35:20;;;;;;;36.20;23.33;;;;;;;;;;6213019;28;20151;-68
2020/12/03 12:38:21;;;;;;;32.30;20.77;;;;;;;;;;6232562;28;20898;-68
2020/12/03 12:41:23;;;;;;;35.72;21.73;;;;;;;;;;6217806;28;20078;-67
2020/12/03 12:44:24;;;;;;;41.88;23.40;;;;;;;;;;6229420;28;20452;-68
2020/12/03 12:47:27;;;;;;;37.35;22.45;;;;;;;;;;6214026;28;20050;-70
2020/12/03 12:50:28;;;;;;;35.75;22.80;;;;;;;;;;6235456;28;20119;-69
2020/12/03 12:53:29;;;;;;;42.53;22.63;;;;;;;;;;6237663;28;20519;-69
2020/12/03 12:56:31;;;;;;;36.63;23.90;;;;;;;;;;6240287;28;20167;-71
2020/12/03 12:59:32;;;;;;;40.60;22.25;;;;;;;;;;6241192;28;20190;-69
2020/12/03 13:02:33;;;;;;;36.05;22.25;;;;;;;;;;6238927;28;20073;-71
2020/12/03 13:05:34;;;;;;;35.72;23.27;;;;;;;;;;6240649;28;20049;-71
2020/12/03 13:08:35;;;;;;;37.00;23.52;;;;;;;;;;6239361;28;20046;-73
2020/12/03 13:11:37;;;;;;;42.15;24.10;;;;;;;;;;6234426;28;20190;-69
2020/12/03 13:14:38;;;;;;;40.78;24.27;;;;;;;;;;6235698;28;20049;-68
2020/12/03 13:17:39;;;;;;;36.78;24.60;;;;;;;;;;6238015;28;20103;-68
2020/12/03 13:20:40;;;;;;;44.88;25.48;;;;;;;;;;6236314;28;20052;-68
2020/12/03 13:23:41;;;;;;;43.90;25.15;;;;;;;;;;6234095;28;20081;-68
2020/12/03 13:26:44;;;;;;;38.13;24.77;;;;;;;;;;6237899;28;20045;-69
2020/12/03 13:29:45;;;;;;;41.67;25.10;;;;;;;;;;6237447;28;20124;-69
2020/12/03 13:32:46;;;;;;;44.40;27.38;;;;;;;;;;6237670;28;20117;-69
2020/12/03 13:35:49;;;;;;;48.58;25.90;;;;;;;;;;6240810;28;20188;-69
2020/12/03 13:38:50;;;;;;;47.55;26.52;;;;;;;;;;6227077;28;20506;-70
2020/12/03 13:41:52;;;;;;;48.72;26.95;;;;;;;;;;6242506;28;20089;-69
2020/12/03 13:44:53;;;;;;;46.33;26.98;;;;;;;;;;6240709;28;20129;-69
2020/12/03 13:47:54;;;;;;;43.00;26.25;;;;;;;;;;6234944;28;20056;-69
2020/12/03 13:50:56;;;;;;;47.33;27.23;;;;;;;;;;6239958;28;20120;-69
2020/12/03 13:53:57;;;;;;;42.90;26.15;;;;;;;;;;6239992;28;20065;-69
2020/12/03 13:56:59;;;;;;;44.03;25.67;;;;;;;;;;6229485;28;20157;-69
2020/12/03 14:00:00;;;;;;;42.97;25.35;;;;;;;;;;6215873;28;20206;-69
2020/12/03 14:03:01;;;;;;;45.58;25.50;;;;;;;;;;6214473;28;20042;-69
2020/12/03 14:06:02;;;;;;;40.45;24.45;;;;;;;;;;6220119;28;20057;-69
2020/12/03 14:09:04;;;;;;;41.00;25.27;;;;;;;;;;6239485;28;20097;-69
2020/12/03 14:12:06;;;;;;;43.08;25.83;;;;;;;;;;6218536;28;20042;-69
2020/12/03 14:15:07;;;;;;;41.65;25.58;;;;;;;;;;6215911;28;20050;-69
2020/12/03 14:18:08;;;;;;;46.30;25.27;;;;;;;;;;6213018;28;20057;-69
2020/12/03 14:21:09;;;;;;;37.45;22.92;;;;;;;;;;6211039;28;20060;-71
2020/12/03 14:24:11;;;;;;;41.72;24.27;;;;;;;;;;6210406;28;20494;-71
2020/12/03 14:27:13;;;;;;;43.58;24.70;;;;;;;;;;6220622;28;20128;-70
2020/12/03 14:30:14;;;;;;;42.47;24.15;;;;;;;;;;6216192;28;20609;-70
2020/12/03 14:33:15;;;;;;;42.50;24.77;;;;;;;;;;6210295;28;20200;-71
2020/12/03 14:36:16;;;;;;;42.53;23.67;;;;;;;;;;6214725;28;20072;-69
2020/12/03 14:39:18;;;;;;;41.35;23.33;;;;;;;;;;6211958;28;20046;-71
2020/12/03 14:42:20;;;;;;;39.00;24.10;;;;;;;;;;6218118;28;20045;-70
2020/12/03 14:45:21;;;;;;;44.42;25.02;;;;;;;;;;6229974;28;20736;-70
2020/12/03 14:48:22;;;;;;;42.35;25.25;;;;;;;;;;6233804;28;20188;-70
2020/12/03 14:51:23;;;;;;;43.97;23.20;;;;;;;;;;6233905;28;20522;-71
2020/12/03 14:54:28;;;;;;;39.95;23.15;;;;;;;;;;6235483;28;20528;-72
2020/12/03 14:57:34;;;;;;;44.85;25.33;;;;;;;;;;6235520;28;20061;-71
2020/12/03 15:00:36;;;;;;;49.78;25.45;;;;;;;;;;6227896;28;20049;-70
2020/12/03 15:03:37;;;;;;;46.50;25.40;;;;;;;;;;6224275;28;20058;-71
2020/12/03 15:06:38;;;;;;;48.58;27.55;;;;;;;;;;6213435;28;20413;-72
2020/12/03 15:09:39;;;;;;;53.58;27.45;;;;;;;;;;6219080;28;20405;-71
2020/12/03 15:12:41;;;;;;;43.72;25.85;;;;;;;;;;6212396;28;20054;-73
2020/12/03 15:15:42;;;;;;;49.63;26.55;;;;;;;;;;6217660;28;20128;-71
2020/12/03 15:18:44;;;;;;;47.50;27.25;;;;;;;;;;6222889;28;20046;-73
2020/12/03 15:21:45;;;;;;;51.55;27.42;;;;;;;;;;6231206;28;20130;-71
2020/12/03 15:24:46;;;;;;;53.50;27.10;;;;;;;;;;6211160;28;20061;-72
2020/12/03 15:27:48;;;;;;;52.92;26.88;;;;;;;;;;6227459;28;20660;-69
2020/12/03 15:30:49;;;;;;;51.67;26.98;;;;;;;;;;6211457;28;20123;-69
2020/12/03 15:33:50;;;;;;;48.47;25.60;;;;;;;;;;6208464;28;20038;-72
2020/12/03 15:36:57;;;;;;;52.58;26.20;;;;;;;;;;6239853;28;20053;-73
2020/12/03 15:39:58;;;;;;;54.55;26.75;;;;;;;;;;6237348;28;20079;-72
2020/12/03 15:43:00;;;;;;;55.83;27.00;;;;;;;;;;6216359;28;20046;-70
2020/12/03 15:46:01;;;;;;;58.35;29.13;;;;;;;;;;6224723;28;20115;-70
2020/12/03 15:49:02;;;;;;;47.50;26.42;;;;;;;;;;6234168;28;20144;-69
2020/12/03 15:52:03;;;;;;;48.22;26.25;;;;;;;;;;6238676;28;20487;-70
2020/12/03 15:55:05;;;;;;;48.05;25.77;;;;;;;;;;6213522;28;20085;-71
2020/12/03 15:58:06;;;;;;;49.00;27.67;;;;;;;;;;6245022;28;20049;-71
2020/12/03 16:01:08;;;;;;;49.83;27.80;;;;;;;;;;6234217;28;20140;-71
2020/12/03 16:04:09;;;;;;;54.95;28.38;;;;;;;;;;6245502;28;20163;-71
2020/12/03 16:07:10;;;;;;;56.67;28.10;;;;;;;;;;6235013;28;20140;-70
2020/12/03 16:10:11;;;;;;;50.72;27.98;;;;;;;;;;6237517;28;20068;-70
2020/12/03 16:13:13;;;;;;;62.20;32.15;;;;;;;;;;6234426;28;20859;-70
2020/12/03 16:16:14;;;;;;;60.03;29.67;;;;;;;;;;6233506;28;20114;-71
2020/12/03 16:19:15;;;;;;;63.78;31.17;;;;;;;;;;6249514;28;20122;-70
2020/12/03 16:22:16;;;;;;;59.35;31.10;;;;;;;;;;6243013;28;20064;-70
2020/12/03 16:25:18;;;;;;;57.90;27.73;;;;;;;;;;6233876;28;20171;-69
2020/12/03 16:28:21;;;;;;;59.70;28.33;;;;;;;;;;6215704;28;20056;-70
2020/12/03 16:31:28;;;;;;;63.03;32.53;;;;;;;;;;6237292;28;20045;-70
2020/12/03 16:34:30;;;;;;;53.30;27.67;;;;;;;;;;6235484;28;20049;-70
2020/12/03 16:37:34;;;;;;;54.35;27.42;;;;;;;;;;6230564;28;20094;-70
2020/12/03 16:40:36;;;;;;;56.88;28.83;;;;;;;;;;6218847;28;20605;-70
2020/12/03 16:43:38;;;;;;;51.72;27.75;;;;;;;;;;6230678;28;20057;-70
2020/12/03 16:46:39;;;;;;;62.58;28.98;;;;;;;;;;6219270;28;20168;-71
2020/12/03 16:49:40;;;;;;;61.17;30.55;;;;;;;;;;6234878;28;20110;-71
2020/12/03 16:52:41;;;;;;;64.80;30.88;;;;;;;;;;6235853;28;20436;-69
2020/12/03 16:55:42;;;;;;;58.63;30.95;;;;;;;;;;6235364;28;20053;-68
2020/12/03 16:58:44;;;;;;;62.08;30.77;;;;;;;;;;6229748;28;20086;-69
2020/12/03 17:01:45;;;;;;;61.63;30.60;;;;;;;;;;6220719;28;20073;-68
2020/12/03 17:04:46;;;;;;;68.05;31.88;;;;;;;;;;6215237;28;20127;-69
2020/12/03 17:07:50;;;;;;;63.90;32.38;;;;;;;;;;6232737;28;20551;-69
2020/12/03 17:10:51;;;;;;;64.50;30.85;;;;;;;;;;6235685;28;20064;-68
2020/12/03 17:13:53;;;;;;;61.75;31.50;;;;;;;;;;6242117;28;20102;-70
2020/12/03 17:16:54;;;;;;;67.20;31.25;;;;;;;;;;6241325;28;20052;-70
2020/12/03 17:19:55;;;;;;;69.15;32.72;;;;;;;;;;6237836;28;20053;-69
2020/12/03 17:22:56;;;;;;;63.50;29.92;;;;;;;;;;6240001;28;20042;-69
2020/12/03 17:25:57;;;;;;;54.45;29.52;;;;;;;;;;6218593;28;20103;-69
2020/12/03 17:28:59;;;;;;;53.40;27.45;;;;;;;;;;6217780;28;20095;-68
2020/12/03 17:32:00;;;;;;;47.92;26.10;;;;;;;;;;6205510;28;20091;-68
2020/12/03 17:35:01;;;;;;;49.10;26.60;;;;;;;;;;6246178;28;20412;-68
2020/12/03 17:38:02;;;;;;;55.38;28.33;;;;;;;;;;6211010;28;20092;-69
2020/12/03 17:41:04;;;;;;;55.17;28.60;;;;;;;;;;6203427;28;20135;-70
2020/12/03 17:44:09;;;;;;;53.03;26.67;;;;;;;;;;6201062;28;20044;-70
2020/12/03 17:47:11;;;;;;;56.03;29.40;;;;;;;;;;6203540;28;20121;-72
2020/12/03 17:50:13;;;;;;;56.25;28.92;;;;;;;;;;5186955;28;10000550;-69
2020/12/03 17:53:16;;;;;;;52.10;26.90;;;;;;;;;;6234546;28;20042;-71
2020/12/03 17:56:17;;;;;;;58.83;29.58;;;;;;;;;;6231482;28;22002;-71